sensor_id;sensor_type;location;lat;lon;timestamp;temperature;humidity
52669;DHT22;59898;52.786;6.892;2023-07-28T00:00:31;18.00;100.00
52669;DHT22;59898;52.786;6.892;2023-07-28T00:03:52;18.00;100.00
52669;DHT22;59898;52.786;6.892;2023-07-28T00:07:12;18.00;100.00
52669;DHT22;59898;52.786;6.892;2023-07-28T00:10:33;18.00;100.00
52669;DHT22;59898;52.786;6.892;2023-07-28T00:13:53;18.00;100.00
52669;DHT22;59898;52.786;6.892;2023-07-28T00:17:14;18.00;100.00
52669;DHT22;59898;52.786;6.892;2023-07-28T00:20:34;17.90;100.00
52669;DHT22;59898;52.786;6.892;2023-07-28T00:23:55;18.00;100.00
52669;DHT22;59898;52.786;6.892;2023-07-28T00:27:15;18.00;100.00
52669;DHT22;59898;52.786;6.892;2023-07-28T00:30:36;17.90;100.00
52669;DHT22;59898;52.786;6.892;2023-07-28T00:33:57;18.00;100.00
52669;DHT22;59898;52.786;6.892;2023-07-28T00:37:17;18.00;100.00
52669;DHT22;59898;52.786;6.892;2023-07-28T00:40:38;17.90;100.00
52669;DHT22;59898;52.786;6.892;2023-07-28T00:43:58;18.00;100.00
52669;DHT22;59898;52.786;6.892;2023-07-28T00:47:19;18.00;100.00
52669;DHT22;59898;52.786;6.892;2023-07-28T00:50:42;18.00;100.00
52669;DHT22;59898;52.786;6.892;2023-07-28T00:54:05;18.00;100.00
52669;DHT22;59898;52.786;6.892;2023-07-28T00:57:26;18.00;100.00
52669;DHT22;59898;52.786;6.892;2023-07-28T01:00:46;17.90;100.00
52669;DHT22;59898;52.786;6.892;2023-07-28T01:04:07;18.00;100.00
52669;DHT22;59898;52.786;6.892;2023-07-28T01:07:53;18.00;100.00
52669;DHT22;59898;52.786;6.892;2023-07-28T01:11:19;18.00;100.00
52669;DHT22;59898;52.786;6.892;2023-07-28T01:14:39;18.00;100.00
52669;DHT22;59898;52.786;6.892;2023-07-28T01:18:00;18.00;100.00
52669;DHT22;59898;52.786;6.892;2023-07-28T01:21:25;18.00;100.00
52669;DHT22;59898;52.786;6.892;2023-07-28T01:25:00;18.00;100.00
52669;DHT22;59898;52.786;6.892;2023-07-28T01:28:24;18.00;100.00
52669;DHT22;59898;52.786;6.892;2023-07-28T01:31:46;18.00;100.00
52669;DHT22;59898;52.786;6.892;2023-07-28T01:35:08;18.00;100.00
52669;DHT22;59898;52.786;6.892;2023-07-28T01:38:29;18.00;100.00
52669;DHT22;59898;52.786;6.892;2023-07-28T01:41:49;18.00;100.00
52669;DHT22;59898;52.786;6.892;2023-07-28T01:45:10;18.00;100.00
52669;DHT22;59898;52.786;6.892;2023-07-28T01:48:30;17.90;100.00
52669;DHT22;59898;52.786;6.892;2023-07-28T01:51:51;18.00;100.00
52669;DHT22;59898;52.786;6.892;2023-07-28T01:55:11;18.00;100.00
52669;DHT22;59898;52.786;6.892;2023-07-28T01:58:32;17.90;100.00
52669;DHT22;59898;52.786;6.892;2023-07-28T02:01:53;17.90;100.00
52669;DHT22;59898;52.786;6.892;2023-07-28T02:05:13;17.90;100.00
52669;DHT22;59898;52.786;6.892;2023-07-28T02:08:34;17.90;100.00
52669;DHT22;59898;52.786;6.892;2023-07-28T02:11:54;17.90;100.00
52669;DHT22;59898;52.786;6.892;2023-07-28T02:15:15;17.90;100.00
52669;DHT22;59898;52.786;6.892;2023-07-28T02:18:35;17.90;100.00
52669;DHT22;59898;52.786;6.892;2023-07-28T02:21:56;17.90;100.00
52669;DHT22;59898;52.786;6.892;2023-07-28T02:25:16;17.90;100.00
52669;DHT22;59898;52.786;6.892;2023-07-28T02:28:37;18.00;100.00
52669;DHT22;59898;52.786;6.892;2023-07-28T02:31:58;17.90;100.00
52669;DHT22;59898;52.786;6.892;2023-07-28T02:35:18;17.90;100.00
52669;DHT22;59898;52.786;6.892;2023-07-28T02:38:39;18.00;100.00
52669;DHT22;59898;52.786;6.892;2023-07-28T02:41:59;18.00;100.00
52669;DHT22;59898;52.786;6.892;2023-07-28T02:45:20;18.00;100.00
52669;DHT22;59898;52.786;6.892;2023-07-28T02:48:40;18.00;100.00
52669;DHT22;59898;52.786;6.892;2023-07-28T02:52:01;18.00;100.00
52669;DHT22;59898;52.786;6.892;2023-07-28T02:55:23;18.00;100.00
52669;DHT22;59898;52.786;6.892;2023-07-28T02:58:43;18.00;100.00
52669;DHT22;59898;52.786;6.892;2023-07-28T03:02:04;18.00;100.00
52669;DHT22;59898;52.786;6.892;2023-07-28T03:05:25;18.00;100.00
52669;DHT22;59898;52.786;6.892;2023-07-28T03:08:45;18.00;100.00
52669;DHT22;59898;52.786;6.892;2023-07-28T03:12:07;18.00;100.00
52669;DHT22;59898;52.786;6.892;2023-07-28T03:15:27;18.00;100.00
52669;DHT22;59898;52.786;6.892;2023-07-28T03:18:48;18.00;100.00
52669;DHT22;59898;52.786;6.892;2023-07-28T03:22:08;18.00;100.00
52669;DHT22;59898;52.786;6.892;2023-07-28T03:25:29;18.00;100.00
52669;DHT22;59898;52.786;6.892;2023-07-28T03:28:49;18.00;100.00
52669;DHT22;59898;52.786;6.892;2023-07-28T03:32:10;18.00;100.00
52669;DHT22;59898;52.786;6.892;2023-07-28T03:35:31;18.00;100.00
52669;DHT22;59898;52.786;6.892;2023-07-28T03:38:51;18.00;100.00
52669;DHT22;59898;52.786;6.892;2023-07-28T03:42:12;18.00;100.00
52669;DHT22;59898;52.786;6.892;2023-07-28T03:45:32;18.00;100.00
52669;DHT22;59898;52.786;6.892;2023-07-28T03:48:53;18.00;100.00
52669;DHT22;59898;52.786;6.892;2023-07-28T03:52:13;18.00;100.00
52669;DHT22;59898;52.786;6.892;2023-07-28T03:55:35;18.00;100.00
52669;DHT22;59898;52.786;6.892;2023-07-28T03:58:55;18.00;100.00
52669;DHT22;59898;52.786;6.892;2023-07-28T04:02:16;18.00;100.00
52669;DHT22;59898;52.786;6.892;2023-07-28T04:05:37;18.10;100.00
52669;DHT22;59898;52.786;6.892;2023-07-28T04:08:58;18.10;100.00
52669;DHT22;59898;52.786;6.892;2023-07-28T04:12:18;18.10;100.00
52669;DHT22;59898;52.786;6.892;2023-07-28T04:15:39;18.10;100.00
52669;DHT22;59898;52.786;6.892;2023-07-28T04:18:59;18.10;100.00
52669;DHT22;59898;52.786;6.892;2023-07-28T04:22:20;18.10;100.00
52669;DHT22;59898;52.786;6.892;2023-07-28T04:25:41;18.10;100.00
52669;DHT22;59898;52.786;6.892;2023-07-28T04:29:02;18.10;100.00
52669;DHT22;59898;52.786;6.892;2023-07-28T04:32:23;18.10;100.00
52669;DHT22;59898;52.786;6.892;2023-07-28T04:35:43;18.10;100.00
52669;DHT22;59898;52.786;6.892;2023-07-28T04:39:04;18.10;100.00
52669;DHT22;59898;52.786;6.892;2023-07-28T04:42:24;18.10;100.00
52669;DHT22;59898;52.786;6.892;2023-07-28T04:45:45;18.10;100.00
52669;DHT22;59898;52.786;6.892;2023-07-28T04:49:06;18.10;100.00
52669;DHT22;59898;52.786;6.892;2023-07-28T04:52:26;18.10;100.00
52669;DHT22;59898;52.786;6.892;2023-07-28T04:55:47;18.20;100.00
52669;DHT22;59898;52.786;6.892;2023-07-28T04:59:07;18.20;100.00
52669;DHT22;59898;52.786;6.892;2023-07-28T05:02:28;18.10;100.00
52669;DHT22;59898;52.786;6.892;2023-07-28T05:05:50;18.20;100.00
52669;DHT22;59898;52.786;6.892;2023-07-28T05:09:10;18.20;100.00
52669;DHT22;59898;52.786;6.892;2023-07-28T05:12:31;18.10;100.00
52669;DHT22;59898;52.786;6.892;2023-07-28T05:15:52;18.20;100.00
52669;DHT22;59898;52.786;6.892;2023-07-28T05:19:12;18.20;100.00
52669;DHT22;59898;52.786;6.892;2023-07-28T05:22:33;18.20;100.00
52669;DHT22;59898;52.786;6.892;2023-07-28T05:25:54;18.20;100.00
52669;DHT22;59898;52.786;6.892;2023-07-28T05:29:14;18.20;100.00
52669;DHT22;59898;52.786;6.892;2023-07-28T05:32:35;18.20;100.00
52669;DHT22;59898;52.786;6.892;2023-07-28T05:36:02;18.20;100.00
52669;DHT22;59898;52.786;6.892;2023-07-28T05:39:23;18.20;100.00
52669;DHT22;59898;52.786;6.892;2023-07-28T05:42:44;18.20;100.00
52669;DHT22;59898;52.786;6.892;2023-07-28T05:46:04;18.20;100.00
52669;DHT22;59898;52.786;6.892;2023-07-28T05:49:25;18.20;100.00
52669;DHT22;59898;52.786;6.892;2023-07-28T05:52:45;18.20;100.00
52669;DHT22;59898;52.786;6.892;2023-07-28T05:56:07;18.20;100.00
52669;DHT22;59898;52.786;6.892;2023-07-28T05:59:28;18.20;100.00
52669;DHT22;59898;52.786;6.892;2023-07-28T06:02:48;18.20;100.00
52669;DHT22;59898;52.786;6.892;2023-07-28T06:06:09;18.20;100.00
52669;DHT22;59898;52.786;6.892;2023-07-28T06:09:30;18.30;100.00
52669;DHT22;59898;52.786;6.892;2023-07-28T06:12:50;18.30;100.00
52669;DHT22;59898;52.786;6.892;2023-07-28T06:16:11;18.30;100.00
52669;DHT22;59898;52.786;6.892;2023-07-28T06:19:32;18.30;100.00
52669;DHT22;59898;52.786;6.892;2023-07-28T06:22:52;18.30;100.00
52669;DHT22;59898;52.786;6.892;2023-07-28T06:26:13;18.40;100.00
52669;DHT22;59898;52.786;6.892;2023-07-28T06:29:33;18.40;99.90
52669;DHT22;59898;52.786;6.892;2023-07-28T06:32:54;18.40;99.80
52669;DHT22;59898;52.786;6.892;2023-07-28T06:36:14;18.50;99.70
52669;DHT22;59898;52.786;6.892;2023-07-28T06:39:35;18.60;99.70
52669;DHT22;59898;52.786;6.892;2023-07-28T06:42:56;18.60;99.50
52669;DHT22;59898;52.786;6.892;2023-07-28T06:46:16;18.70;99.40
52669;DHT22;59898;52.786;6.892;2023-07-28T06:49:37;18.70;99.30
52669;DHT22;59898;52.786;6.892;2023-07-28T06:52:57;18.80;99.20
52669;DHT22;59898;52.786;6.892;2023-07-28T06:56:18;18.90;98.90
52669;DHT22;59898;52.786;6.892;2023-07-28T06:59:39;18.90;98.80
52669;DHT22;59898;52.786;6.892;2023-07-28T07:02:59;19.00;98.60
52669;DHT22;59898;52.786;6.892;2023-07-28T07:06:20;19.00;98.40
52669;DHT22;59898;52.786;6.892;2023-07-28T07:09:40;19.10;98.30
52669;DHT22;59898;52.786;6.892;2023-07-28T07:13:01;19.10;98.20
52669;DHT22;59898;52.786;6.892;2023-07-28T07:16:23;19.10;98.00
52669;DHT22;59898;52.786;6.892;2023-07-28T07:19:43;19.10;97.90
52669;DHT22;59898;52.786;6.892;2023-07-28T07:23:04;19.10;97.90
52669;DHT22;59898;52.786;6.892;2023-07-28T07:26:25;19.10;97.70
52669;DHT22;59898;52.786;6.892;2023-07-28T07:29:46;19.10;97.70
52669;DHT22;59898;52.786;6.892;2023-07-28T07:33:06;19.20;97.70
52669;DHT22;59898;52.786;6.892;2023-07-28T07:36:27;19.20;97.60
52669;DHT22;59898;52.786;6.892;2023-07-28T07:39:47;19.30;97.20
52669;DHT22;59898;52.786;6.892;2023-07-28T07:43:08;19.40;97.10
52669;DHT22;59898;52.786;6.892;2023-07-28T07:46:29;19.50;96.90
52669;DHT22;59898;52.786;6.892;2023-07-28T07:49:49;19.60;96.50
52669;DHT22;59898;52.786;6.892;2023-07-28T07:53:10;19.70;96.00
52669;DHT22;59898;52.786;6.892;2023-07-28T07:56:30;19.70;95.60
52669;DHT22;59898;52.786;6.892;2023-07-28T07:59:51;19.70;95.30
52669;DHT22;59898;52.786;6.892;2023-07-28T08:03:11;19.70;95.00
52669;DHT22;59898;52.786;6.892;2023-07-28T08:06:32;19.70;95.30
52669;DHT22;59898;52.786;6.892;2023-07-28T08:09:53;19.70;95.10
52669;DHT22;59898;52.786;6.892;2023-07-28T08:13:14;19.70;94.90
52669;DHT22;59898;52.786;6.892;2023-07-28T08:16:35;19.80;94.80
52669;DHT22;59898;52.786;6.892;2023-07-28T08:19:55;19.80;94.30
52669;DHT22;59898;52.786;6.892;2023-07-28T08:23:16;19.90;94.20
52669;DHT22;59898;52.786;6.892;2023-07-28T08:26:37;20.00;94.10
52669;DHT22;59898;52.786;6.892;2023-07-28T08:29:58;20.20;94.00
52669;DHT22;59898;52.786;6.892;2023-07-28T08:33:18;20.30;93.70
52669;DHT22;59898;52.786;6.892;2023-07-28T08:36:39;20.50;93.40
52669;DHT22;59898;52.786;6.892;2023-07-28T08:39:59;20.60;93.20
52669;DHT22;59898;52.786;6.892;2023-07-28T08:43:20;20.70;92.40
52669;DHT22;59898;52.786;6.892;2023-07-28T08:46:40;20.70;91.40
52669;DHT22;59898;52.786;6.892;2023-07-28T08:50:01;20.80;91.50
52669;DHT22;59898;52.786;6.892;2023-07-28T08:53:21;21.00;91.10
52669;DHT22;59898;52.786;6.892;2023-07-28T08:56:43;21.00;90.40
52669;DHT22;59898;52.786;6.892;2023-07-28T09:00:08;21.10;90.20
52669;DHT22;59898;52.786;6.892;2023-07-28T09:03:30;21.30;89.60
52669;DHT22;59898;52.786;6.892;2023-07-28T09:06:52;21.40;88.50
52669;DHT22;59898;52.786;6.892;2023-07-28T09:10:12;21.40;88.20
52669;DHT22;59898;52.786;6.892;2023-07-28T09:13:40;21.40;88.20
52669;DHT22;59898;52.786;6.892;2023-07-28T09:17:11;21.40;87.70
52669;DHT22;59898;52.786;6.892;2023-07-28T09:20:34;21.60;86.00
52669;DHT22;59898;52.786;6.892;2023-07-28T09:23:55;21.60;85.80
52669;DHT22;59898;52.786;6.892;2023-07-28T09:27:25;21.60;86.00
52669;DHT22;59898;52.786;6.892;2023-07-28T09:30:48;21.80;85.50
52669;DHT22;59898;52.786;6.892;2023-07-28T09:34:10;21.70;85.90
52669;DHT22;59898;52.786;6.892;2023-07-28T09:37:31;21.70;85.90
52669;DHT22;59898;52.786;6.892;2023-07-28T09:40:53;21.80;85.50
52669;DHT22;59898;52.786;6.892;2023-07-28T09:44:15;21.90;85.50
52669;DHT22;59898;52.786;6.892;2023-07-28T09:47:37;21.90;85.30
52669;DHT22;59898;52.786;6.892;2023-07-28T09:50:59;21.90;85.00
52669;DHT22;59898;52.786;6.892;2023-07-28T09:54:28;21.90;84.80
52669;DHT22;59898;52.786;6.892;2023-07-28T09:57:52;21.90;84.90
52669;DHT22;59898;52.786;6.892;2023-07-28T10:01:14;21.90;85.10
52669;DHT22;59898;52.786;6.892;2023-07-28T10:04:35;21.90;84.50
52669;DHT22;59898;52.786;6.892;2023-07-28T10:07:56;22.00;85.20
52669;DHT22;59898;52.786;6.892;2023-07-28T10:11:17;22.00;84.30
52669;DHT22;59898;52.786;6.892;2023-07-28T10:14:38;22.00;84.50
52669;DHT22;59898;52.786;6.892;2023-07-28T10:18:00;22.10;84.80
52669;DHT22;59898;52.786;6.892;2023-07-28T10:21:20;22.20;84.30
52669;DHT22;59898;52.786;6.892;2023-07-28T10:24:51;22.40;84.00
52669;DHT22;59898;52.786;6.892;2023-07-28T10:31:54;22.80;81.00
52669;DHT22;59898;52.786;6.892;2023-07-28T10:38:42;22.70;81.10
52669;DHT22;59898;52.786;6.892;2023-07-28T10:42:10;22.70;81.50
52669;DHT22;59898;52.786;6.892;2023-07-28T10:45:31;22.60;81.90
52669;DHT22;59898;52.786;6.892;2023-07-28T10:48:52;22.60;81.70
52669;DHT22;59898;52.786;6.892;2023-07-28T10:52:15;22.80;81.50
52669;DHT22;59898;52.786;6.892;2023-07-28T10:55:36;23.10;81.10
52669;DHT22;59898;52.786;6.892;2023-07-28T10:59:02;23.40;80.60
52669;DHT22;59898;52.786;6.892;2023-07-28T11:02:23;23.50;79.50
52669;DHT22;59898;52.786;6.892;2023-07-28T11:05:44;23.50;79.60
52669;DHT22;59898;52.786;6.892;2023-07-28T11:09:06;23.40;79.30
52669;DHT22;59898;52.786;6.892;2023-07-28T11:12:27;23.20;79.70
52669;DHT22;59898;52.786;6.892;2023-07-28T11:15:47;22.90;80.70
52669;DHT22;59898;52.786;6.892;2023-07-28T11:19:10;22.70;81.30
52669;DHT22;59898;52.786;6.892;2023-07-28T11:22:31;22.70;82.20
52669;DHT22;59898;52.786;6.892;2023-07-28T11:25:52;22.70;82.60
52669;DHT22;59898;52.786;6.892;2023-07-28T11:29:12;22.70;82.90
52669;DHT22;59898;52.786;6.892;2023-07-28T11:32:37;22.60;82.80
52669;DHT22;59898;52.786;6.892;2023-07-28T11:35:58;22.40;83.10
52669;DHT22;59898;52.786;6.892;2023-07-28T11:39:19;22.10;83.50
52669;DHT22;59898;52.786;6.892;2023-07-28T11:42:47;22.00;83.90
52669;DHT22;59898;52.786;6.892;2023-07-28T11:46:31;21.90;84.20
52669;DHT22;59898;52.786;6.892;2023-07-28T11:49:52;22.00;84.20
52669;DHT22;59898;52.786;6.892;2023-07-28T11:53:14;22.00;84.70
52669;DHT22;59898;52.786;6.892;2023-07-28T11:56:34;21.90;84.70
52669;DHT22;59898;52.786;6.892;2023-07-28T11:59:55;21.80;85.60
52669;DHT22;59898;52.786;6.892;2023-07-28T12:03:16;21.80;86.10
52669;DHT22;59898;52.786;6.892;2023-07-28T12:07:00;21.70;86.60
52669;DHT22;59898;52.786;6.892;2023-07-28T12:10:20;21.80;86.70
52669;DHT22;59898;52.786;6.892;2023-07-28T12:13:51;21.90;86.90
52669;DHT22;59898;52.786;6.892;2023-07-28T12:17:13;22.00;86.80
52669;DHT22;59898;52.786;6.892;2023-07-28T12:20:51;22.10;86.90
52669;DHT22;59898;52.786;6.892;2023-07-28T12:24:12;22.20;86.20
52669;DHT22;59898;52.786;6.892;2023-07-28T12:27:33;22.40;86.50
52669;DHT22;59898;52.786;6.892;2023-07-28T12:30:53;22.60;85.70
52669;DHT22;59898;52.786;6.892;2023-07-28T12:34:16;22.80;84.60
52669;DHT22;59898;52.786;6.892;2023-07-28T12:37:36;22.90;82.90
52669;DHT22;59898;52.786;6.892;2023-07-28T12:40:57;23.10;83.20
52669;DHT22;59898;52.786;6.892;2023-07-28T12:44:22;23.20;83.10
52669;DHT22;59898;52.786;6.892;2023-07-28T12:47:43;23.40;82.00
52669;DHT22;59898;52.786;6.892;2023-07-28T12:51:03;23.50;80.40
52669;DHT22;59898;52.786;6.892;2023-07-28T12:54:24;23.60;79.80
52669;DHT22;59898;52.786;6.892;2023-07-28T12:57:46;23.80;78.30
52669;DHT22;59898;52.786;6.892;2023-07-28T13:01:08;23.80;77.30
52669;DHT22;59898;52.786;6.892;2023-07-28T13:04:32;23.90;76.70
52669;DHT22;59898;52.786;6.892;2023-07-28T13:07:52;23.90;76.30
52669;DHT22;59898;52.786;6.892;2023-07-28T13:11:13;24.00;76.30
52669;DHT22;59898;52.786;6.892;2023-07-28T13:14:36;24.20;75.50
52669;DHT22;59898;52.786;6.892;2023-07-28T13:17:57;24.40;75.50
52669;DHT22;59898;52.786;6.892;2023-07-28T13:21:17;24.50;74.60
52669;DHT22;59898;52.786;6.892;2023-07-28T13:24:38;24.60;74.00
52669;DHT22;59898;52.786;6.892;2023-07-28T13:27:59;24.60;74.10
52669;DHT22;59898;52.786;6.892;2023-07-28T13:31:19;24.70;72.20
52669;DHT22;59898;52.786;6.892;2023-07-28T13:34:42;24.80;72.10
52669;DHT22;59898;52.786;6.892;2023-07-28T13:38:02;24.90;72.00
52669;DHT22;59898;52.786;6.892;2023-07-28T13:41:23;24.90;71.20
52669;DHT22;59898;52.786;6.892;2023-07-28T13:44:44;25.10;71.60
52669;DHT22;59898;52.786;6.892;2023-07-28T13:48:04;25.10;71.00
52669;DHT22;59898;52.786;6.892;2023-07-28T13:51:25;25.00;70.90
52669;DHT22;59898;52.786;6.892;2023-07-28T13:54:45;24.90;70.60
52669;DHT22;59898;52.786;6.892;2023-07-28T13:58:06;24.90;71.40
52669;DHT22;59898;52.786;6.892;2023-07-28T14:01:27;25.00;71.10
52669;DHT22;59898;52.786;6.892;2023-07-28T14:04:47;25.10;71.30
52669;DHT22;59898;52.786;6.892;2023-07-28T14:08:08;25.10;69.90
52669;DHT22;59898;52.786;6.892;2023-07-28T14:11:28;25.10;69.80
52669;DHT22;59898;52.786;6.892;2023-07-28T14:14:49;25.20;70.10
52669;DHT22;59898;52.786;6.892;2023-07-28T14:18:10;25.30;69.70
52669;DHT22;59898;52.786;6.892;2023-07-28T14:21:30;25.40;68.50
52669;DHT22;59898;52.786;6.892;2023-07-28T14:24:51;25.40;68.90
52669;DHT22;59898;52.786;6.892;2023-07-28T14:28:11;25.50;68.50
52669;DHT22;59898;52.786;6.892;2023-07-28T14:31:32;25.60;68.90
52669;DHT22;59898;52.786;6.892;2023-07-28T14:34:53;25.60;68.50
52669;DHT22;59898;52.786;6.892;2023-07-28T14:38:14;25.70;68.30
52669;DHT22;59898;52.786;6.892;2023-07-28T14:41:35;25.60;67.90
52669;DHT22;59898;52.786;6.892;2023-07-28T14:44:56;25.70;68.00
52669;DHT22;59898;52.786;6.892;2023-07-28T14:48:17;25.70;67.80
52669;DHT22;59898;52.786;6.892;2023-07-28T14:51:37;25.70;67.50
52669;DHT22;59898;52.786;6.892;2023-07-28T14:54:58;25.60;67.30
52669;DHT22;59898;52.786;6.892;2023-07-28T14:58:21;25.40;67.20
52669;DHT22;59898;52.786;6.892;2023-07-28T15:01:44;25.20;67.20
52669;DHT22;59898;52.786;6.892;2023-07-28T15:05:07;25.10;67.40
52669;DHT22;59898;52.786;6.892;2023-07-28T15:08:28;25.10;67.90
52669;DHT22;59898;52.786;6.892;2023-07-28T15:11:49;25.20;67.30
52669;DHT22;59898;52.786;6.892;2023-07-28T15:15:09;25.30;66.80
52669;DHT22;59898;52.786;6.892;2023-07-28T15:18:30;25.40;66.70
52669;DHT22;59898;52.786;6.892;2023-07-28T15:21:51;25.40;67.00
52669;DHT22;59898;52.786;6.892;2023-07-28T15:25:11;25.40;67.10
52669;DHT22;59898;52.786;6.892;2023-07-28T15:28:32;25.30;67.10
52669;DHT22;59898;52.786;6.892;2023-07-28T15:31:52;25.20;67.60
52669;DHT22;59898;52.786;6.892;2023-07-28T15:35:14;25.20;67.50
52669;DHT22;59898;52.786;6.892;2023-07-28T15:38:34;25.10;67.20
52669;DHT22;59898;52.786;6.892;2023-07-28T15:41:55;25.10;67.00
52669;DHT22;59898;52.786;6.892;2023-07-28T15:45:16;25.00;67.40
52669;DHT22;59898;52.786;6.892;2023-07-28T15:48:37;25.00;67.90
52669;DHT22;59898;52.786;6.892;2023-07-28T15:51:57;24.90;67.80
52669;DHT22;59898;52.786;6.892;2023-07-28T15:55:18;24.90;68.00
52669;DHT22;59898;52.786;6.892;2023-07-28T15:58:39;24.80;68.10
52669;DHT22;59898;52.786;6.892;2023-07-28T16:01:59;24.80;68.70
52669;DHT22;59898;52.786;6.892;2023-07-28T16:05:20;24.80;68.60
52669;DHT22;59898;52.786;6.892;2023-07-28T16:08:40;24.80;68.20
52669;DHT22;59898;52.786;6.892;2023-07-28T16:12:01;24.80;68.30
52669;DHT22;59898;52.786;6.892;2023-07-28T16:15:23;24.80;68.30
52669;DHT22;59898;52.786;6.892;2023-07-28T16:18:44;24.90;67.50
52669;DHT22;59898;52.786;6.892;2023-07-28T16:22:04;25.00;67.30
52669;DHT22;59898;52.786;6.892;2023-07-28T16:25:25;25.00;67.00
52669;DHT22;59898;52.786;6.892;2023-07-28T16:28:45;24.90;67.00
52669;DHT22;59898;52.786;6.892;2023-07-28T16:32:06;24.90;67.50
52669;DHT22;59898;52.786;6.892;2023-07-28T16:35:28;24.90;67.40
52669;DHT22;59898;52.786;6.892;2023-07-28T16:38:48;24.70;67.70
52669;DHT22;59898;52.786;6.892;2023-07-28T16:42:09;24.70;68.20
52669;DHT22;59898;52.786;6.892;2023-07-28T16:45:29;24.70;68.20
52669;DHT22;59898;52.786;6.892;2023-07-28T16:48:50;24.70;68.40
52669;DHT22;59898;52.786;6.892;2023-07-28T16:52:10;24.80;68.30
52669;DHT22;59898;52.786;6.892;2023-07-28T16:55:31;24.80;67.60
52669;DHT22;59898;52.786;6.892;2023-07-28T16:58:51;24.70;67.30
52669;DHT22;59898;52.786;6.892;2023-07-28T17:02:12;24.60;67.60
52669;DHT22;59898;52.786;6.892;2023-07-28T17:05:33;24.60;67.50
52669;DHT22;59898;52.786;6.892;2023-07-28T17:08:53;24.60;67.60
52669;DHT22;59898;52.786;6.892;2023-07-28T17:12:14;24.60;67.60
52669;DHT22;59898;52.786;6.892;2023-07-28T17:15:34;24.60;67.80
52669;DHT22;59898;52.786;6.892;2023-07-28T17:18:55;24.60;67.60
52669;DHT22;59898;52.786;6.892;2023-07-28T17:22:15;24.60;67.60
52669;DHT22;59898;52.786;6.892;2023-07-28T17:25:36;24.60;67.40
52669;DHT22;59898;52.786;6.892;2023-07-28T17:28:57;24.50;67.70
52669;DHT22;59898;52.786;6.892;2023-07-28T17:32:18;24.50;67.40
52669;DHT22;59898;52.786;6.892;2023-07-28T17:35:40;24.50;66.80
52669;DHT22;59898;52.786;6.892;2023-07-28T17:39:00;24.50;66.50
52669;DHT22;59898;52.786;6.892;2023-07-28T17:42:24;24.50;66.50
52669;DHT22;59898;52.786;6.892;2023-07-28T17:45:46;24.50;66.60
52669;DHT22;59898;52.786;6.892;2023-07-28T17:49:06;24.50;66.60
52669;DHT22;59898;52.786;6.892;2023-07-28T17:52:27;24.40;66.40
52669;DHT22;59898;52.786;6.892;2023-07-28T17:55:48;24.30;66.30
52669;DHT22;59898;52.786;6.892;2023-07-28T17:59:08;24.20;66.50
52669;DHT22;59898;52.786;6.892;2023-07-28T18:02:31;24.10;67.00
52669;DHT22;59898;52.786;6.892;2023-07-28T18:05:52;24.10;67.20
52669;DHT22;59898;52.786;6.892;2023-07-28T18:09:13;24.00;67.70
52669;DHT22;59898;52.786;6.892;2023-07-28T18:12:34;23.90;68.00
52669;DHT22;59898;52.786;6.892;2023-07-28T18:15:54;23.80;68.40
52669;DHT22;59898;52.786;6.892;2023-07-28T18:19:15;23.80;68.80
52669;DHT22;59898;52.786;6.892;2023-07-28T18:22:38;23.70;69.30
52669;DHT22;59898;52.786;6.892;2023-07-28T18:25:58;23.70;69.60
52669;DHT22;59898;52.786;6.892;2023-07-28T18:29:19;23.60;69.80
52669;DHT22;59898;52.786;6.892;2023-07-28T18:32:42;23.60;69.90
52669;DHT22;59898;52.786;6.892;2023-07-28T18:36:02;23.50;70.10
52669;DHT22;59898;52.786;6.892;2023-07-28T18:39:23;23.50;70.30
52669;DHT22;59898;52.786;6.892;2023-07-28T18:42:44;23.40;70.50
52669;DHT22;59898;52.786;6.892;2023-07-28T18:46:04;23.40;70.70
52669;DHT22;59898;52.786;6.892;2023-07-28T18:49:25;23.40;70.90
52669;DHT22;59898;52.786;6.892;2023-07-28T18:52:45;23.30;71.30
52669;DHT22;59898;52.786;6.892;2023-07-28T18:56:06;23.30;71.50
52669;DHT22;59898;52.786;6.892;2023-07-28T18:59:26;23.30;71.70
52669;DHT22;59898;52.786;6.892;2023-07-28T19:02:47;23.20;71.80
52669;DHT22;59898;52.786;6.892;2023-07-28T19:06:15;23.20;71.90
52669;DHT22;59898;52.786;6.892;2023-07-28T19:09:40;23.10;72.00
52669;DHT22;59898;52.786;6.892;2023-07-28T19:13:00;23.10;72.30
52669;DHT22;59898;52.786;6.892;2023-07-28T19:16:21;23.00;72.50
52669;DHT22;59898;52.786;6.892;2023-07-28T19:19:42;23.00;72.50
52669;DHT22;59898;52.786;6.892;2023-07-28T19:23:04;23.00;72.30
52669;DHT22;59898;52.786;6.892;2023-07-28T19:26:24;22.90;72.30
52669;DHT22;59898;52.786;6.892;2023-07-28T19:29:45;22.90;72.30
52669;DHT22;59898;52.786;6.892;2023-07-28T19:33:06;22.80;72.50
52669;DHT22;59898;52.786;6.892;2023-07-28T19:36:26;22.70;72.70
52669;DHT22;59898;52.786;6.892;2023-07-28T19:39:47;22.70;73.10
52669;DHT22;59898;52.786;6.892;2023-07-28T19:43:09;22.60;73.30
52669;DHT22;59898;52.786;6.892;2023-07-28T19:46:29;22.60;73.60
52669;DHT22;59898;52.786;6.892;2023-07-28T19:49:50;22.50;73.60
52669;DHT22;59898;52.786;6.892;2023-07-28T19:53:11;22.50;73.70
52669;DHT22;59898;52.786;6.892;2023-07-28T19:56:31;22.40;73.70
52669;DHT22;59898;52.786;6.892;2023-07-28T19:59:52;22.40;73.80
52669;DHT22;59898;52.786;6.892;2023-07-28T20:03:12;22.40;74.00
52669;DHT22;59898;52.786;6.892;2023-07-28T20:06:34;22.40;74.10
52669;DHT22;59898;52.786;6.892;2023-07-28T20:09:55;22.30;74.10
52669;DHT22;59898;52.786;6.892;2023-07-28T20:13:16;22.30;74.20
52669;DHT22;59898;52.786;6.892;2023-07-28T20:16:40;22.20;74.20
52669;DHT22;59898;52.786;6.892;2023-07-28T20:20:00;22.30;74.30
52669;DHT22;59898;52.786;6.892;2023-07-28T20:23:21;22.20;74.40
52669;DHT22;59898;52.786;6.892;2023-07-28T20:26:41;22.20;74.50
52669;DHT22;59898;52.786;6.892;2023-07-28T20:30:02;22.20;74.50
52669;DHT22;59898;52.786;6.892;2023-07-28T20:33:24;22.20;74.50
52669;DHT22;59898;52.786;6.892;2023-07-28T20:36:44;22.10;74.50
52669;DHT22;59898;52.786;6.892;2023-07-28T20:40:05;22.10;74.50
52669;DHT22;59898;52.786;6.892;2023-07-28T20:43:26;22.10;74.60
52669;DHT22;59898;52.786;6.892;2023-07-28T20:46:47;22.10;74.80
52669;DHT22;59898;52.786;6.892;2023-07-28T20:50:08;22.10;74.80
52669;DHT22;59898;52.786;6.892;2023-07-28T20:53:29;22.10;75.20
52669;DHT22;59898;52.786;6.892;2023-07-28T20:56:51;22.00;75.20
52669;DHT22;59898;52.786;6.892;2023-07-28T21:00:12;22.00;75.20
52669;DHT22;59898;52.786;6.892;2023-07-28T21:03:33;22.00;75.30
52669;DHT22;59898;52.786;6.892;2023-07-28T21:06:53;22.00;75.70
52669;DHT22;59898;52.786;6.892;2023-07-28T21:10:14;21.90;75.90
52669;DHT22;59898;52.786;6.892;2023-07-28T21:13:34;21.90;76.00